Zarling — WDD7883 — position and weather

sailwx.info

Track history (hours):
 
Tides and Currents Weather Stations Pressure Air Temp Water Temp Dewpoint Dewpoint Depression Visibility Wind Speed Wind Dir Waves Ship Positions

Zarling

Owner: Clean Rivers Co-op, Portland, OR. More information available from US FCC via Universal Licensing System.

Last reported at 2015-Mar-30 23:32 UTC. Time now 2015-Mar-31 00:22 UTC.
Position N 46°05' W 122°56'.

Length 12 m.

Type: Pollution control. MMSI: 3699126.

Date/timePositionNaut miles runAvg speedWind from/ knotsBaromVisibWave heightAir tempDewpointWater temp
2015-Mar-30 23:32N 46°05' W 122°56'20666.2
2015-Mar-30 23:31N 46°12' W 123°23'431275.5
2015-Mar-30 23:29N 45°37' W 122°48'0 0.0
2015-Mar-30 22:32N 45°37' W 122°48'432530.0
2015-Mar-30 22:31N 46°12' W 123°23'20293.1
2015-Mar-30 22:26N 46°05' W 122°56'2023.1
2015-Mar-30 21:34N 46°12' W 123°23'201046.9
2015-Mar-30 21:32N 46°05' W 122°56'29448.7
2015-Mar-30 21:29N 45°37' W 122°48'2930.6
2015-Mar-30 20:32N 46°05' W 122°56'292243.4
2015-Mar-30 20:32N 45°37' W 122°48'43197.6
2015-Mar-30 20:19N 46°12' W 123°23'0 0.0
2015-Mar-30 19:34N 46°12' W 123°23'20293.1
2015-Mar-30 19:29N 46°05' W 122°56'29452.6
2015-Mar-30 19:26N 45°37' W 122°48'0 0.0
2015-Mar-30 18:32N 45°37' W 122°48'43640.4
2015-Mar-30 18:28N 46°12' W 123°23'20289.7
2015-Mar-30 18:23N 46°05' W 122°56'0 0.0
2015-Mar-30 17:32N 46°05' W 122°56'292345.4
2015-Mar-30 17:32N 45°37' W 122°48'43256.8
2015-Mar-30 17:22N 46°12' W 123°23'0 0.0
2015-Mar-30 16:31N 46°12' W 123°23'201004.0
2015-Mar-30 16:29N 46°05' W 122°56'29460.8
2015-Mar-30 16:26N 45°37' W 122°48'4349.4
2015-Mar-30 15:34N 46°12' W 123°23'20990.3
2015-Mar-30 15:32N 46°05' W 122°56'29471.3
2015-Mar-30 15:29N 45°37' W 122°48'2930.6
2015-Mar-30 14:32N 46°05' W 122°56'292400.0
2015-Mar-30 14:32N 45°37' W 122°48'43360.6
2015-Mar-30 14:24N 46°12' W 123°23'2023.4
2015-Mar-30 13:32N 46°05' W 122°56'20684.9
2015-Mar-30 13:31N 46°12' W 123°23'431307.9
2015-Mar-30 13:29N 45°37' W 122°48'4344.3
2015-Mar-30 12:31N 46°12' W 123°23'20293.1
2015-Mar-30 12:26N 46°05' W 122°56'2992.2
2015-Mar-30 12:08N 45°37' W 122°48'0 0.0
2015-Mar-30 11:32N 45°37' W 122°48'432269.8
2015-Mar-30 11:31N 46°12' W 123°23'20120.1
2015-Mar-30 11:20N 46°05' W 122°56'2026.1
2015-Mar-30 10:33N 46°12' W 123°23'201017.9
2015-Mar-30 10:32N 46°05' W 122°56'292580.0
2015-Mar-30 10:32N 45°37' W 122°48'4344.3
2015-Mar-30 09:34N 46°12' W 123°23'431378.0
2015-Mar-30 09:32N 45°37' W 122°48'29152.2
2015-Mar-30 09:20N 46°05' W 122°56'2026.1
2015-Mar-30 08:34N 46°12' W 123°23'201017.9
2015-Mar-30 08:32N 46°05' W 122°56'29257.4
2015-Mar-30 08:26N 45°37' W 122°48'4349.4
2015-Mar-30 07:34N 46°12' W 123°23'431378.1
2015-Mar-30 07:32N 45°37' W 122°48'29323.6
2015-Mar-30 07:26N 46°05' W 122°56'2021.9
2015-Mar-30 06:30N 46°12' W 123°23'20294.3
2015-Mar-30 06:26N 46°05' W 122°56'2979.3
2015-Mar-30 06:05N 45°37' W 122°48'4382.6
2015-Mar-30 05:34N 46°12' W 123°23'431378.1
2015-Mar-30 05:32N 45°37' W 122°48'29324.6
2015-Mar-30 05:26N 46°05' W 122°56'0 0.0
2015-Mar-30 04:32N 46°05' W 122°56'20666.2
2015-Mar-30 04:31N 46°12' W 123°23'43152.7
2015-Mar-30 04:14N 45°37' W 122°48'2941.6
2015-Mar-30 03:32N 46°05' W 122°56'20684.9
2015-Mar-30 03:31N 46°12' W 123°23'43528.6
2015-Mar-30 03:26N 45°37' W 122°48'4349.3
2015-Mar-30 02:34N 46°12' W 123°23'431415.9
2015-Mar-30 02:32N 45°37' W 122°48'29321.5
2015-Mar-30 02:26N 46°05' W 122°56'0 0.0
2015-Mar-30 01:32N 46°05' W 122°56'292715.7
2015-Mar-30 01:32N 45°37' W 122°48'432204.7
2015-Mar-30 01:31N 46°12' W 123°23'0 0.0
2015-Mar-30 00:34N 46°12' W 123°23'201032.2
2015-Mar-30 00:32N 46°05' W 122°56'29475.6
2015-Mar-30 00:29N 45°37' W 122°48'2930.5
2015-Mar-29 23:32N 46°05' W 122°56'293329.0
2015-Mar-29 23:32N 45°37' W 122°48'43352.4
2015-Mar-29 23:25N 46°12' W 123°23'2023.4
2015-Mar-29 22:32N 46°05' W 122°56'292580.0
2015-Mar-29 22:32N 45°37' W 122°48'432085.6
2015-Mar-29 22:31N 46°12' W 123°23'2021.0
2015-Mar-29 21:32N 46°05' W 122°56'292580.0
2015-Mar-29 21:32N 45°37' W 122°48'432236.7
2015-Mar-29 21:31N 46°12' W 123°23'0 0.0
2015-Mar-29 20:33N 46°12' W 123°23'432616.1
2015-Mar-29 20:32N 45°37' W 122°48'29203.9
2015-Mar-29 20:23N 46°05' W 122°56'2024.2
2015-Mar-29 19:33N 46°12' W 123°23'432530.0
2015-Mar-29 19:32N 45°37' W 122°48'29151.1
2015-Mar-29 19:20N 46°05' W 122°56'0 0.0
2015-Mar-29 18:32N 46°05' W 122°56'293225.0
2015-Mar-29 18:32N 45°37' W 122°48'43320.2
2015-Mar-29 18:24N 46°12' W 123°23'0 0.0
2015-Mar-29 17:33N 46°12' W 123°23'203053.6
2015-Mar-29 17:32N 46°05' W 122°56'293035.2
2015-Mar-29 17:32N 45°37' W 122°48'4343.6
2015-Mar-29 16:33N 46°12' W 123°23'432616.1
2015-Mar-29 16:32N 45°37' W 122°48'29707.0
2015-Mar-29 16:29N 46°05' W 122°56'2929.9
2015-Mar-29 15:32N 45°37' W 122°48'43721.3
2015-Mar-29 15:28N 46°12' W 123°23'20654.3
2015-Mar-29 15:26N 46°05' W 122°56'2021.0
2015-Mar-29 14:28N 46°12' W 123°23'20153.3
2015-Mar-29 14:20N 46°05' W 122°56'292948.5
2015-Mar-29 14:20N 45°37' W 122°48'2936.3
2015-Mar-29 13:32N 46°05' W 122°56'201145.1
2015-Mar-29 13:31N 46°12' W 123°23'43472.0
2015-Mar-29 13:26N 45°37' W 122°48'2931.3
2015-Mar-29 12:31N 46°05' W 122°56'29342.9
2015-Mar-29 12:26N 45°37' W 122°48'431224.9
2015-Mar-29 12:24N 46°12' W 123°23'4349.6
2015-Mar-29 11:32N 45°37' W 122°48'291720.3
2015-Mar-29 11:31N 46°05' W 122°56'201110.4
2015-Mar-29 11:30N 46°12' W 123°23'0 0.0
2015-Mar-29 10:33N 46°12' W 123°23'432755.9
2015-Mar-29 10:32N 45°37' W 122°48'291691.8
2015-Mar-29 10:31N 46°05' W 122°56'2021.0
2015-Mar-29 09:33N 46°12' W 123°23'433149.6
2015-Mar-29 09:32N 45°37' W 122°48'29243.4
2015-Mar-29 09:25N 46°05' W 122°56'2932.5
2015-Mar-29 08:32N 45°37' W 122°48'43501.1
2015-Mar-29 08:27N 46°12' W 123°23'20637.3
2015-Mar-29 08:25N 46°05' W 122°56'2023.4
2015-Mar-29 07:33N 46°12' W 123°23'20654.4
2015-Mar-29 07:31N 46°05' W 122°56'29156.6
2015-Mar-29 07:20N 45°37' W 122°48'0 0.0
2015-Mar-29 06:32N 45°37' W 122°48'291692.1
2015-Mar-29 06:31N 46°05' W 122°56'201077.7
2015-Mar-29 06:30N 46°12' W 123°23'0 0.0
2015-Mar-29 05:33N 46°12' W 123°23'433026.5
2015-Mar-29 05:32N 45°37' W 122°48'291664.8
2015-Mar-29 05:31N 46°05' W 122°56'2927.8
2015-Mar-29 04:29N 45°37' W 122°48'29419.6
2015-Mar-29 04:25N 46°05' W 122°56'2093.2
2015-Mar-29 04:12N 46°12' W 123°23'2029.9
2015-Mar-29 03:31N 46°05' W 122°56'201110.4
2015-Mar-29 03:30N 46°12' W 123°23'43668.2
2015-Mar-29 03:26N 45°37' W 122°48'4348.4
2015-Mar-29 02:33N 46°12' W 123°23'433149.6
2015-Mar-29 02:32N 45°37' W 122°48'291638.1
2015-Mar-29 02:31N 46°05' W 122°56'2929.2
2015-Mar-29 01:32N 45°37' W 122°48'291517.6
2015-Mar-29 01:31N 46°05' W 122°56'201062.1
2015-Mar-29 01:30N 46°12' W 123°23'2020.8
2015-Mar-29 00:31N 46°05' W 122°56'20172.4
2015-Mar-29 00:24N 46°12' W 123°23'433086.6
2015-Mar-29 00:23N 45°37' W 122°48'4351.3
2015-Mar-28 23:33N 46°12' W 123°23'432911.9
2015-Mar-28 23:32N 45°37' W 122°48'291664.5
2015-Mar-28 23:31N 46°05' W 122°56'2021.0
2015-Mar-28 22:33N 46°12' W 123°23'433026.1
2015-Mar-28 22:32N 45°37' W 122°48'291517.6
2015-Mar-28 22:31N 46°05' W 122°56'2021.0
2015-Mar-28 21:33N 46°12' W 123°23'20591.0
2015-Mar-28 21:31N 46°05' W 122°56'29992.3
2015-Mar-28 21:29N 45°37' W 122°48'4345.8
2015-Mar-28 20:33N 46°12' W 123°23'433283.7
2015-Mar-28 20:32N 45°37' W 122°48'291243.4
2015-Mar-28 20:31N 46°05' W 122°56'2929.3
2015-Mar-28 19:32N 45°37' W 122°48'291290.0
2015-Mar-28 19:31N 46°05' W 122°56'20176.6
2015-Mar-28 19:24N 46°12' W 123°23'0 0.0
2015-Mar-28 18:33N 46°12' W 123°23'43379.2
2015-Mar-28 18:26N 45°37' W 122°48'29395.4
2015-Mar-28 18:22N 46°05' W 122°56'2934.6
2015-Mar-28 17:32N 45°37' W 122°48'291290.0
2015-Mar-28 17:31N 46°05' W 122°56'201382.7
2015-Mar-28 17:30N 46°12' W 123°23'0 0.0
2015-Mar-28 16:33N 46°12' W 123°23'43680.0
2015-Mar-28 16:29N 45°37' W 122°48'291258.8
2015-Mar-28 16:28N 46°05' W 122°56'2931.0
2015-Mar-28 15:32N 45°37' W 122°48'43480.8
2015-Mar-28 15:27N 46°12' W 123°23'2086.6
2015-Mar-28 15:13N 46°05' W 122°56'2942.4
2015-Mar-28 14:32N 45°37' W 122°48'43600.5
2015-Mar-28 14:28N 46°12' W 123°23'209160.7
2015-Mar-28 14:28N 46°05' W 122°56'2930.9
2015-Mar-28 13:32N 45°37' W 122°48'431905.5
2015-Mar-28 13:31N 46°12' W 123°23'20200.3
2015-Mar-28 13:25N 46°05' W 122°56'2022.7
2015-Mar-28 12:31N 46°12' W 123°23'20201.9
2015-Mar-28 12:25N 46°05' W 122°56'29372.6
2015-Mar-28 12:20N 45°37' W 122°48'0 0.0
2015-Mar-28 11:32N 45°37' W 122°48'431859.8
2015-Mar-28 11:31N 46°12' W 123°23'2036642.8
2015-Mar-28 11:31N 46°05' W 122°56'2929.4
2015-Mar-28 10:32N 45°37' W 122°48'291172.7
2015-Mar-28 10:31N 46°05' W 122°56'20207.0
2015-Mar-28 10:25N 46°12' W 123°23'2022.6
2015-Mar-28 09:31N 46°05' W 122°56'291075.0
2015-Mar-28 09:29N 45°37' W 122°48'43586.8
2015-Mar-28 09:25N 46°12' W 123°23'4348.9
2015-Mar-28 08:32N 45°37' W 122°48'431859.4
2015-Mar-28 08:31N 46°12' W 123°23'2073285.7
2015-Mar-28 08:31N 46°05' W 122°56'0 0.0
2015-Mar-28 07:31N 46°05' W 122°56'29379.5
2015-Mar-28 07:26N 45°37' W 122°48'431859.6
2015-Mar-28 07:25N 46°12' W 123°23'2022.6
2015-Mar-28 06:31N 46°05' W 122°56'29379.4
2015-Mar-28 06:26N 45°37' W 122°48'4346.4
2015-Mar-28 05:31N 46°12' W 123°23'2018321.4
2015-Mar-28 05:31N 46°05' W 122°56'29164.1
2015-Mar-28 05:20N 45°37' W 122°48'0 0.0
2015-Mar-28 04:32N 45°37' W 122°48'431794.8
2015-Mar-28 04:31N 46°12' W 123°23'20202.4
2015-Mar-28 04:25N 46°05' W 122°56'2932.7
2015-Mar-28 03:32N 45°37' W 122°48'291172.7
2015-Mar-28 03:31N 46°05' W 122°56'2082.0
2015-Mar-28 03:16N 46°12' W 123°23'4351.9
2015-Mar-28 02:26N 45°37' W 122°48'291109.7
2015-Mar-28 02:25N 46°05' W 122°56'20102.4
2015-Mar-28 02:13N 46°12' W 123°23'4363.4
2015-Mar-28 01:32N 45°37' W 122°48'431773.9
2015-Mar-28 01:31N 46°12' W 123°23'2067.9
2015-Mar-28 01:13N 46°05' W 122°56'2939.5
2015-Mar-28 00:29N 45°37' W 122°48'43573.7
2015-Mar-28 00:25N 46°12' W 123°23'20201.9
2015-Mar-28 00:19N 46°05' W 122°56'2937.0
2015-Mar-27 23:32N 45°37' W 122°48'43344.5
2015-Mar-27 23:25N 46°12' W 123°23'2036642.8
2015-Mar-27 23:25N 46°05' W 122°56'2022.7
2015-Mar-27 22:31N 46°12' W 123°23'431659.5
2015-Mar-27 22:29N 45°37' W 122°48'2929.4
2015-Mar-27 21:31N 46°05' W 122°56'20423.7
2015-Mar-27 21:28N 46°12' W 123°23'431642.0
2015-Mar-27 21:26N 45°37' W 122°48'4346.4
2015-Mar-27 20:31N 46°12' W 123°23'2024428.6
2015-Mar-27 20:31N 46°05' W 122°56'291186.2
2015-Mar-27 20:29N 45°37' W 122°48'2927.9
2015-Mar-27 19:28N 46°05' W 122°56'291172.7
2015-Mar-27 19:26N 45°37' W 122°48'431714.8
2015-Mar-27 19:25N 46°12' W 123°23'4349.0
2015-Mar-27 18:32N 45°37' W 122°48'431753.8
2015-Mar-27 18:31N 46°12' W 123°23'20201.3
2015-Mar-27 18:25N 46°05' W 122°56'2932.8
2015-Mar-27 17:32N 45°37' W 122°48'431714.8
2015-Mar-27 17:31N 46°12' W 123°23'20200.2
2015-Mar-27 17:25N 46°05' W 122°56'2124.3
2015-Mar-27 16:33N 46°12' W 123°24'432926.1
2015-Mar-27 16:32N 45°37' W 122°48'291022.0
2015-Mar-27 16:31N 46°05' W 122°56'2020.6
2015-Mar-27 15:31N 46°12' W 123°23'47331.7
2015-Mar-27 15:23N 45°34' W 122°45'321794.7
2015-Mar-27 15:22N 46°05' W 122°56'29391.0
2015-Mar-27 15:17N 45°37' W 122°48'0 0.0
2015-Mar-27 14:32N 45°37' W 122°48'432530.0
2015-Mar-27 14:31N 46°12' W 123°23'471127.5
2015-Mar-27 14:29N 45°34' W 122°45'32192.7
2015-Mar-27 14:19N 46°05' W 122°56'2025.8
2015-Mar-27 13:31N 46°12' W 123°23'20339.3
2015-Mar-27 13:28N 46°05' W 122°56'291243.4
2015-Mar-27 13:26N 45°37' W 122°48'0 0.0
2015-Mar-27 12:32N 45°37' W 122°48'432615.8
2015-Mar-27 12:31N 46°12' W 123°23'20337.7
2015-Mar-27 12:28N 46°05' W 122°56'2931.1
2015-Mar-27 11:32N 45°37' W 122°48'432411.7
2015-Mar-27 11:31N 46°12' W 123°23'20188.4
2015-Mar-27 11:25N 46°05' W 122°56'2932.8
2015-Mar-27 10:32N 45°37' W 122°48'43640.4
2015-Mar-27 10:28N 46°12' W 123°23'202093.9
2015-Mar-27 10:28N 46°05' W 122°56'2931.1
2015-Mar-27 09:32N 45°37' W 122°48'291053.0
2015-Mar-27 09:31N 46°05' W 122°56'20508.9
2015-Mar-27 09:28N 46°12' W 123°23'2020.1
2015-Mar-27 08:28N 46°05' W 122°56'20527.3
2015-Mar-27 08:25N 46°12' W 123°23'43234.6
2015-Mar-27 08:14N 45°37' W 122°48'0 0.0
2015-Mar-27 07:32N 45°37' W 122°48'432411.7
2015-Mar-27 07:31N 46°12' W 123°23'202035.7
2015-Mar-27 07:31N 46°05' W 122°56'2020.6
2015-Mar-27 06:31N 46°12' W 123°23'201832.1
2015-Mar-27 06:31N 46°05' W 122°56'29401.6
2015-Mar-27 06:26N 45°37' W 122°48'4346.6
2015-Mar-27 05:31N 46°12' W 123°23'43236.0
2015-Mar-27 05:20N 45°37' W 122°48'29126.0
2015-Mar-27 05:07N 46°05' W 122°56'2034.6
2015-Mar-27 04:31N 46°12' W 123°23'43543.4
2015-Mar-27 04:27N 45°37' W 122°48'29348.6
2015-Mar-27 04:22N 46°05' W 122°56'2934.9
2015-Mar-27 03:32N 45°37' W 122°48'432411.4
2015-Mar-27 03:31N 46°12' W 123°23'20340.9
2015-Mar-27 03:28N 46°05' W 122°56'2931.1
2015-Mar-27 02:32N 45°37' W 122°48'43983.0
2015-Mar-27 02:30N 46°12' W 123°23'20577.1
2015-Mar-27 02:28N 46°05' W 122°56'  
Track history (hours):
 
Tides and Currents Weather Stations Pressure Air Temp Water Temp Dewpoint Dewpoint Depression Visibility Wind Speed Wind Dir Waves Ship Positions

Zarling

Owner: Clean Rivers Co-op, Portland, OR. More information available from US FCC via Universal Licensing System.

Last reported at 2015-Mar-30 23:32 UTC. Time now 2015-Mar-31 00:22 UTC.
Position N 46°05' W 122°56'.

Length 12 m.

Type: Pollution control. MMSI: 3699126.

Date/timePositionNaut miles runAvg speedWind from/ knotsBaromVisibWave heightAir tempDewpointWater temp
2015-Mar-30 23:32N 46°05' W 122°56'20666.2
2015-Mar-30 23:31N 46°12' W 123°23'431275.5
2015-Mar-30 23:29N 45°37' W 122°48'0 0.0
2015-Mar-30 22:32N 45°37' W 122°48'432530.0
2015-Mar-30 22:31N 46°12' W 123°23'20293.1
2015-Mar-30 22:26N 46°05' W 122°56'2023.1
2015-Mar-30 21:34N 46°12' W 123°23'201046.9
2015-Mar-30 21:32N 46°05' W 122°56'29448.7
2015-Mar-30 21:29N 45°37' W 122°48'2930.6
2015-Mar-30 20:32N 46°05' W 122°56'292243.4
2015-Mar-30 20:32N 45°37' W 122°48'43197.6
2015-Mar-30 20:19N 46°12' W 123°23'0 0.0
2015-Mar-30 19:34N 46°12' W 123°23'20293.1
2015-Mar-30 19:29N 46°05' W 122°56'29452.6
2015-Mar-30 19:26N 45°37' W 122°48'0 0.0
2015-Mar-30 18:32N 45°37' W 122°48'43640.4
2015-Mar-30 18:28N 46°12' W 123°23'20289.7
2015-Mar-30 18:23N 46°05' W 122°56'0 0.0
2015-Mar-30 17:32N 46°05' W 122°56'292345.4
2015-Mar-30 17:32N 45°37' W 122°48'43256.8
2015-Mar-30 17:22N 46°12' W 123°23'0 0.0
2015-Mar-30 16:31N 46°12' W 123°23'201004.0
2015-Mar-30 16:29N 46°05' W 122°56'29460.8
2015-Mar-30 16:26N 45°37' W 122°48'4349.4
2015-Mar-30 15:34N 46°12' W 123°23'20990.3
2015-Mar-30 15:32N 46°05' W 122°56'29471.3
2015-Mar-30 15:29N 45°37' W 122°48'2930.6
2015-Mar-30 14:32N 46°05' W 122°56'292400.0
2015-Mar-30 14:32N 45°37' W 122°48'43360.6
2015-Mar-30 14:24N 46°12' W 123°23'2023.4
2015-Mar-30 13:32N 46°05' W 122°56'20684.9
2015-Mar-30 13:31N 46°12' W 123°23'431307.9
2015-Mar-30 13:29N 45°37' W 122°48'4344.3
2015-Mar-30 12:31N 46°12' W 123°23'20293.1
2015-Mar-30 12:26N 46°05' W 122°56'2992.2
2015-Mar-30 12:08N 45°37' W 122°48'0 0.0
2015-Mar-30 11:32N 45°37' W 122°48'432269.8
2015-Mar-30 11:31N 46°12' W 123°23'20120.1
2015-Mar-30 11:20N 46°05' W 122°56'2026.1
2015-Mar-30 10:33N 46°12' W 123°23'201017.9
2015-Mar-30 10:32N 46°05' W 122°56'292580.0
2015-Mar-30 10:32N 45°37' W 122°48'4344.3
2015-Mar-30 09:34N 46°12' W 123°23'431378.0
2015-Mar-30 09:32N 45°37' W 122°48'29152.2
2015-Mar-30 09:20N 46°05' W 122°56'2026.1
2015-Mar-30 08:34N 46°12' W 123°23'201017.9
2015-Mar-30 08:32N 46°05' W 122°56'29257.4
2015-Mar-30 08:26N 45°37' W 122°48'4349.4
2015-Mar-30 07:34N 46°12' W 123°23'431378.1
2015-Mar-30 07:32N 45°37' W 122°48'29323.6
2015-Mar-30 07:26N 46°05' W 122°56'2021.9
2015-Mar-30 06:30N 46°12' W 123°23'20294.3
2015-Mar-30 06:26N 46°05' W 122°56'2979.3
2015-Mar-30 06:05N 45°37' W 122°48'4382.6
2015-Mar-30 05:34N 46°12' W 123°23'431378.1
2015-Mar-30 05:32N 45°37' W 122°48'29324.6
2015-Mar-30 05:26N 46°05' W 122°56'0 0.0
2015-Mar-30 04:32N 46°05' W 122°56'20666.2
2015-Mar-30 04:31N 46°12' W 123°23'43152.7
2015-Mar-30 04:14N 45°37' W 122°48'2941.6
2015-Mar-30 03:32N 46°05' W 122°56'20684.9
2015-Mar-30 03:31N 46°12' W 123°23'43528.6
2015-Mar-30 03:26N 45°37' W 122°48'4349.3
2015-Mar-30 02:34N 46°12' W 123°23'431415.9
2015-Mar-30 02:32N 45°37' W 122°48'29321.5
2015-Mar-30 02:26N 46°05' W 122°56'0 0.0
2015-Mar-30 01:32N 46°05' W 122°56'292715.7
2015-Mar-30 01:32N 45°37' W 122°48'432204.7
2015-Mar-30 01:31N 46°12' W 123°23'0 0.0
2015-Mar-30 00:34N 46°12' W 123°23'201032.2
2015-Mar-30 00:32N 46°05' W 122°56'29475.6
2015-Mar-30 00:29N 45°37' W 122°48'2930.5
2015-Mar-29 23:32N 46°05' W 122°56'293329.0
2015-Mar-29 23:32N 45°37' W 122°48'43352.4
2015-Mar-29 23:25N 46°12' W 123°23'2023.4
2015-Mar-29 22:32N 46°05' W 122°56'292580.0
2015-Mar-29 22:32N 45°37' W 122°48'432085.6
2015-Mar-29 22:31N 46°12' W 123°23'2021.0
2015-Mar-29 21:32N 46°05' W 122°56'292580.0
2015-Mar-29 21:32N 45°37' W 122°48'432236.7
2015-Mar-29 21:31N 46°12' W 123°23'0 0.0
2015-Mar-29 20:33N 46°12' W 123°23'432616.1
2015-Mar-29 20:32N 45°37' W 122°48'29203.9
2015-Mar-29 20:23N 46°05' W 122°56'2024.2
2015-Mar-29 19:33N 46°12' W 123°23'432530.0
2015-Mar-29 19:32N 45°37' W 122°48'29151.1
2015-Mar-29 19:20N 46°05' W 122°56'0 0.0
2015-Mar-29 18:32N 46°05' W 122°56'293225.0
2015-Mar-29 18:32N 45°37' W 122°48'43320.2
2015-Mar-29 18:24N 46°12' W 123°23'0 0.0
2015-Mar-29 17:33N 46°12' W 123°23'203053.6
2015-Mar-29 17:32N 46°05' W 122°56'293035.2
2015-Mar-29 17:32N 45°37' W 122°48'4343.6
2015-Mar-29 16:33N 46°12' W 123°23'432616.1
2015-Mar-29 16:32N 45°37' W 122°48'29707.0
2015-Mar-29 16:29N 46°05' W 122°56'2929.9
2015-Mar-29 15:32N 45°37' W 122°48'43721.3
2015-Mar-29 15:28N 46°12' W 123°23'20654.3
2015-Mar-29 15:26N 46°05' W 122°56'2021.0
2015-Mar-29 14:28N 46°12' W 123°23'20153.3
2015-Mar-29 14:20N 46°05' W 122°56'292948.5
2015-Mar-29 14:20N 45°37' W 122°48'2936.3
2015-Mar-29 13:32N 46°05' W 122°56'201145.1
2015-Mar-29 13:31N 46°12' W 123°23'43472.0
2015-Mar-29 13:26N 45°37' W 122°48'2931.3
2015-Mar-29 12:31N 46°05' W 122°56'29342.9
2015-Mar-29 12:26N 45°37' W 122°48'431224.9
2015-Mar-29 12:24N 46°12' W 123°23'4349.6
2015-Mar-29 11:32N 45°37' W 122°48'291720.3
2015-Mar-29 11:31N 46°05' W 122°56'201110.4
2015-Mar-29 11:30N 46°12' W 123°23'0 0.0
2015-Mar-29 10:33N 46°12' W 123°23'432755.9
2015-Mar-29 10:32N 45°37' W 122°48'291691.8
2015-Mar-29 10:31N 46°05' W 122°56'2021.0
2015-Mar-29 09:33N 46°12' W 123°23'433149.6
2015-Mar-29 09:32N 45°37' W 122°48'29243.4
2015-Mar-29 09:25N 46°05' W 122°56'2932.5
2015-Mar-29 08:32N 45°37' W 122°48'43501.1
2015-Mar-29 08:27N 46°12' W 123°23'20637.3
2015-Mar-29 08:25N 46°05' W 122°56'2023.4
2015-Mar-29 07:33N 46°12' W 123°23'20654.4
2015-Mar-29 07:31N 46°05' W 122°56'29156.6
2015-Mar-29 07:20N 45°37' W 122°48'0 0.0
2015-Mar-29 06:32N 45°37' W 122°48'291692.1
2015-Mar-29 06:31N 46°05' W 122°56'201077.7
2015-Mar-29 06:30N 46°12' W 123°23'0 0.0
2015-Mar-29 05:33N 46°12' W 123°23'433026.5
2015-Mar-29 05:32N 45°37' W 122°48'291664.8
2015-Mar-29 05:31N 46°05' W 122°56'2927.8
2015-Mar-29 04:29N 45°37' W 122°48'29419.6
2015-Mar-29 04:25N 46°05' W 122°56'2093.2
2015-Mar-29 04:12N 46°12' W 123°23'2029.9
2015-Mar-29 03:31N 46°05' W 122°56'201110.4
2015-Mar-29 03:30N 46°12' W 123°23'43668.2
2015-Mar-29 03:26N 45°37' W 122°48'4348.4
2015-Mar-29 02:33N 46°12' W 123°23'433149.6
2015-Mar-29 02:32N 45°37' W 122°48'291638.1
2015-Mar-29 02:31N 46°05' W 122°56'2929.2
2015-Mar-29 01:32N 45°37' W 122°48'291517.6
2015-Mar-29 01:31N 46°05' W 122°56'201062.1
2015-Mar-29 01:30N 46°12' W 123°23'2020.8
2015-Mar-29 00:31N 46°05' W 122°56'20172.4
2015-Mar-29 00:24N 46°12' W 123°23'433086.6
2015-Mar-29 00:23N 45°37' W 122°48'4351.3
2015-Mar-28 23:33N 46°12' W 123°23'432911.9
2015-Mar-28 23:32N 45°37' W 122°48'291664.5
2015-Mar-28 23:31N 46°05' W 122°56'2021.0
2015-Mar-28 22:33N 46°12' W 123°23'433026.1
2015-Mar-28 22:32N 45°37' W 122°48'291517.6
2015-Mar-28 22:31N 46°05' W 122°56'2021.0
2015-Mar-28 21:33N 46°12' W 123°23'20591.0
2015-Mar-28 21:31N 46°05' W 122°56'29992.3
2015-Mar-28 21:29N 45°37' W 122°48'4345.8
2015-Mar-28 20:33N 46°12' W 123°23'433283.7
2015-Mar-28 20:32N 45°37' W 122°48'291243.4
2015-Mar-28 20:31N 46°05' W 122°56'2929.3
2015-Mar-28 19:32N 45°37' W 122°48'291290.0
2015-Mar-28 19:31N 46°05' W 122°56'20176.6
2015-Mar-28 19:24N 46°12' W 123°23'0 0.0
2015-Mar-28 18:33N 46°12' W 123°23'43379.2
2015-Mar-28 18:26N 45°37' W 122°48'29395.4
2015-Mar-28 18:22N 46°05' W 122°56'2934.6
2015-Mar-28 17:32N 45°37' W 122°48'291290.0
2015-Mar-28 17:31N 46°05' W 122°56'201382.7
2015-Mar-28 17:30N 46°12' W 123°23'0 0.0
2015-Mar-28 16:33N 46°12' W 123°23'43680.0
2015-Mar-28 16:29N 45°37' W 122°48'291258.8
2015-Mar-28 16:28N 46°05' W 122°56'2931.0
2015-Mar-28 15:32N 45°37' W 122°48'43480.8
2015-Mar-28 15:27N 46°12' W 123°23'2086.6
2015-Mar-28 15:13N 46°05' W 122°56'2942.4
2015-Mar-28 14:32N 45°37' W 122°48'43600.5
2015-Mar-28 14:28N 46°12' W 123°23'209160.7
2015-Mar-28 14:28N 46°05' W 122°56'2930.9
2015-Mar-28 13:32N 45°37' W 122°48'431905.5
2015-Mar-28 13:31N 46°12' W 123°23'20200.3
2015-Mar-28 13:25N 46°05' W 122°56'2022.7
2015-Mar-28 12:31N 46°12' W 123°23'20201.9
2015-Mar-28 12:25N 46°05' W 122°56'29372.6
2015-Mar-28 12:20N 45°37' W 122°48'0 0.0
2015-Mar-28 11:32N 45°37' W 122°48'431859.8
2015-Mar-28 11:31N 46°12' W 123°23'2036642.8
2015-Mar-28 11:31N 46°05' W 122°56'2929.4
2015-Mar-28 10:32N 45°37' W 122°48'291172.7
2015-Mar-28 10:31N 46°05' W 122°56'20207.0
2015-Mar-28 10:25N 46°12' W 123°23'2022.6
2015-Mar-28 09:31N 46°05' W 122°56'291075.0
2015-Mar-28 09:29N 45°37' W 122°48'43586.8
2015-Mar-28 09:25N 46°12' W 123°23'4348.9
2015-Mar-28 08:32N 45°37' W 122°48'431859.4
2015-Mar-28 08:31N 46°12' W 123°23'2073285.7
2015-Mar-28 08:31N 46°05' W 122°56'0 0.0
2015-Mar-28 07:31N 46°05' W 122°56'29379.5
2015-Mar-28 07:26N 45°37' W 122°48'431859.6
2015-Mar-28 07:25N 46°12' W 123°23'2022.6
2015-Mar-28 06:31N 46°05' W 122°56'29379.4
2015-Mar-28 06:26N 45°37' W 122°48'4346.4
2015-Mar-28 05:31N 46°12' W 123°23'2018321.4
2015-Mar-28 05:31N 46°05' W 122°56'29164.1
2015-Mar-28 05:20N 45°37' W 122°48'0 0.0
2015-Mar-28 04:32N 45°37' W 122°48'431794.8
2015-Mar-28 04:31N 46°12' W 123°23'20202.4
2015-Mar-28 04:25N 46°05' W 122°56'2932.7
2015-Mar-28 03:32N 45°37' W 122°48'291172.7
2015-Mar-28 03:31N 46°05' W 122°56'2082.0
2015-Mar-28 03:16N 46°12' W 123°23'4351.9
2015-Mar-28 02:26N 45°37' W 122°48'291109.7
2015-Mar-28 02:25N 46°05' W 122°56'20102.4
2015-Mar-28 02:13N 46°12' W 123°23'4363.4
2015-Mar-28 01:32N 45°37' W 122°48'431773.9
2015-Mar-28 01:31N 46°12' W 123°23'2067.9
2015-Mar-28 01:13N 46°05' W 122°56'2939.5
2015-Mar-28 00:29N 45°37' W 122°48'43573.7
2015-Mar-28 00:25N 46°12' W 123°23'20201.9
2015-Mar-28 00:19N 46°05' W 122°56'2937.0
2015-Mar-27 23:32N 45°37' W 122°48'43344.5
2015-Mar-27 23:25N 46°12' W 123°23'2036642.8
2015-Mar-27 23:25N 46°05' W 122°56'2022.7
2015-Mar-27 22:31N 46°12' W 123°23'431659.5
2015-Mar-27 22:29N 45°37' W 122°48'2929.4
2015-Mar-27 21:31N 46°05' W 122°56'20423.7
2015-Mar-27 21:28N 46°12' W 123°23'431642.0
2015-Mar-27 21:26N 45°37' W 122°48'4346.4
2015-Mar-27 20:31N 46°12' W 123°23'2024428.6
2015-Mar-27 20:31N 46°05' W 122°56'291186.2
2015-Mar-27 20:29N 45°37' W 122°48'2927.9
2015-Mar-27 19:28N 46°05' W 122°56'291172.7
2015-Mar-27 19:26N 45°37' W 122°48'431714.8
2015-Mar-27 19:25N 46°12' W 123°23'4349.0
2015-Mar-27 18:32N 45°37' W 122°48'431753.8
2015-Mar-27 18:31N 46°12' W 123°23'20201.3
2015-Mar-27 18:25N 46°05' W 122°56'2932.8
2015-Mar-27 17:32N 45°37' W 122°48'431714.8
2015-Mar-27 17:31N 46°12' W 123°23'20200.2
2015-Mar-27 17:25N 46°05' W 122°56'2124.3
2015-Mar-27 16:33N 46°12' W 123°24'432926.1
2015-Mar-27 16:32N 45°37' W 122°48'291022.0
2015-Mar-27 16:31N 46°05' W 122°56'2020.6
2015-Mar-27 15:31N 46°12' W 123°23'47331.7
2015-Mar-27 15:23N 45°34' W 122°45'321794.7
2015-Mar-27 15:22N 46°05' W 122°56'29391.0
2015-Mar-27 15:17N 45°37' W 122°48'0 0.0
2015-Mar-27 14:32N 45°37' W 122°48'432530.0
2015-Mar-27 14:31N 46°12' W 123°23'471127.5
2015-Mar-27 14:29N 45°34' W 122°45'32192.7
2015-Mar-27 14:19N 46°05' W 122°56'2025.8
2015-Mar-27 13:31N 46°12' W 123°23'20339.3
2015-Mar-27 13:28N 46°05' W 122°56'291243.4
2015-Mar-27 13:26N 45°37' W 122°48'0 0.0
2015-Mar-27 12:32N 45°37' W 122°48'432615.8
2015-Mar-27 12:31N 46°12' W 123°23'20337.7
2015-Mar-27 12:28N 46°05' W 122°56'2931.1
2015-Mar-27 11:32N 45°37' W 122°48'432411.7
2015-Mar-27 11:31N 46°12' W 123°23'20188.4
2015-Mar-27 11:25N 46°05' W 122°56'2932.8
2015-Mar-27 10:32N 45°37' W 122°48'43640.4
2015-Mar-27 10:28N 46°12' W 123°23'202093.9
2015-Mar-27 10:28N 46°05' W 122°56'2931.1
2015-Mar-27 09:32N 45°37' W 122°48'291053.0
2015-Mar-27 09:31N 46°05' W 122°56'20508.9
2015-Mar-27 09:28N 46°12' W 123°23'2020.1
2015-Mar-27 08:28N 46°05' W 122°56'20527.3
2015-Mar-27 08:25N 46°12' W 123°23'43234.6
2015-Mar-27 08:14N 45°37' W 122°48'0 0.0
2015-Mar-27 07:32N 45°37' W 122°48'432411.7
2015-Mar-27 07:31N 46°12' W 123°23'202035.7
2015-Mar-27 07:31N 46°05' W 122°56'2020.6
2015-Mar-27 06:31N 46°12' W 123°23'201832.1
2015-Mar-27 06:31N 46°05' W 122°56'29401.6
2015-Mar-27 06:26N 45°37' W 122°48'4346.6
2015-Mar-27 05:31N 46°12' W 123°23'43236.0
2015-Mar-27 05:20N 45°37' W 122°48'29126.0
2015-Mar-27 05:07N 46°05' W 122°56'2034.6
2015-Mar-27 04:31N 46°12' W 123°23'43543.4
2015-Mar-27 04:27N 45°37' W 122°48'29348.6
2015-Mar-27 04:22N 46°05' W 122°56'2934.9
2015-Mar-27 03:32N 45°37' W 122°48'432411.4
2015-Mar-27 03:31N 46°12' W 123°23'20340.9
2015-Mar-27 03:28N 46°05' W 122°56'2931.1
2015-Mar-27 02:32N 45°37' W 122°48'43983.0
2015-Mar-27 02:30N 46°12' W 123°23'20577.1
2015-Mar-27 02:28N 46°05' W 122°56'  

Dump ship's entire track history